Terminal Aerodrome Forecast
Issued by NWS Twin Cities, MN

Home | Current Version | Previous Version | Text Only | Print | Product List | Glossary Off
Versions: 1 2 3 4 5 6 7 8 9 10 11 12 13 14 15 16 17 18 19 20 21 22 23 24 25 26

428
FTUS43 KMPX 240126 AAA
TAFMSP
TAF AMD
KMSP 240126Z 2401/2506 15010KT P6SM -SHRA BKN040 OVC120
      TEMPO 2403/2405 6SM TSRA BKN035CB OVC100
     FM240500 15007KT P6SM VCSH SCT015 OVC030
     FM240900 23005KT 6SM BR SCT007 OVC015
     FM241500 27007KT P6SM SCT015 OVC025
     FM241800 29010KT P6SM FEW025=

USA.gov is the U.S. government's official web portal to all federal, state and local government web resources and services.